createdAt,value
2023-04-07T00:03:24.744Z,19.73
2023-04-07T00:08:28.756Z,18.92
2023-04-07T00:13:32.812Z,17.92
2023-04-07T00:18:37.827Z,18.25
2023-04-07T00:23:42.873Z,17.50
2023-04-07T00:28:46.624Z,16.90
2023-04-07T00:33:51.737Z,16.08
2023-04-07T00:38:55.444Z,18.65
2023-04-07T00:43:59.253Z,17.60
2023-04-07T00:49:04.803Z,18.48
2023-04-07T00:54:10.107Z,18.37
2023-04-07T00:59:13.892Z,17.25
2023-04-07T01:04:27.900Z,16.50
2023-04-07T01:09:38.362Z,16.35
2023-04-07T01:14:52.869Z,16.33
2023-04-07T01:20:03.476Z,16.37
2023-04-07T01:25:30.370Z,17.05
2023-04-07T01:30:39.274Z,18.98
2023-04-07T01:35:44.828Z,15.77
2023-04-07T01:40:49.967Z,14.25
2023-04-07T01:45:56.043Z,15.15
2023-04-07T01:51:00.832Z,14.38
2023-04-07T01:56:04.814Z,15.68
2023-04-07T02:01:10.691Z,15.23
2023-04-07T02:06:19.152Z,17.15
2023-04-07T02:11:25.561Z,15.63
2023-04-07T02:16:32.819Z,15.75
2023-04-07T02:21:37.991Z,16.77
2023-04-07T02:26:44.052Z,13.20
2023-04-07T02:31:49.310Z,14.60
2023-04-07T02:36:53.278Z,13.38
2023-04-07T02:41:57.030Z,15.35
2023-04-07T02:47:02.126Z,13.45
2023-04-07T02:52:06.065Z,15.02
2023-04-07T02:57:09.804Z,13.85
2023-04-07T03:02:15.214Z,14.27
2023-04-07T03:07:19.289Z,13.77
2023-04-07T03:12:24.535Z,13.60
2023-04-07T03:17:30.323Z,13.90
2023-04-07T03:22:34.195Z,13.32
2023-04-07T03:27:38.000Z,12.95
2023-04-07T03:32:44.700Z,14.02
2023-04-07T03:37:48.565Z,13.30
2023-04-07T03:42:52.657Z,14.02
2023-04-07T03:47:57.847Z,14.45
2023-04-07T03:53:02.012Z,16.30
2023-04-07T03:58:06.914Z,16.92
2023-04-07T04:03:12.911Z,19.05
2023-04-07T04:08:17.610Z,18.27
2023-04-07T04:13:21.410Z,19.35
2023-04-07T04:18:27.956Z,20.77
2023-04-07T04:23:31.957Z,21.30
2023-04-07T04:28:36.002Z,21.73
2023-04-07T04:33:42.321Z,20.37
2023-04-07T04:38:46.249Z,23.60
2023-04-07T04:43:50.841Z,23.23
2023-04-07T04:48:57.832Z,22.10
2023-04-07T04:54:03.812Z,20.42
2023-04-07T04:59:09.848Z,19.25
2023-04-07T05:04:16.890Z,23.12
2023-04-07T05:09:21.632Z,20.15
2023-04-07T05:14:25.717Z,18.10
2023-04-07T05:19:31.375Z,17.83
2023-04-07T05:24:36.270Z,17.73
2023-04-07T05:29:40.134Z,18.85
2023-04-07T05:34:46.861Z,20.27
2023-04-07T05:39:51.379Z,17.90
2023-04-07T05:44:55.415Z,15.35
2023-04-07T05:50:01.224Z,17.35
2023-04-07T05:55:08.430Z,15.55
2023-04-07T06:00:13.776Z,14.85
2023-04-07T06:05:19.139Z,13.15
2023-04-07T06:10:24.627Z,12.55
2023-04-07T06:15:28.456Z,12.80
2023-04-07T06:20:33.653Z,15.23
2023-04-07T06:25:37.399Z,15.85
2023-04-07T06:30:41.605Z,14.13
2023-04-07T06:35:47.760Z,14.70
2023-04-07T06:40:52.296Z,15.52
2023-04-07T06:45:56.008Z,15.82
2023-04-07T06:51:01.130Z,19.20
2023-04-07T06:56:06.127Z,20.50
2023-04-07T07:01:09.907Z,20.70
2023-04-07T07:06:14.975Z,19.37
2023-04-07T07:11:18.721Z,20.17
2023-04-07T07:16:23.916Z,16.45
2023-04-07T07:21:29.036Z,14.85
2023-04-07T07:26:32.850Z,12.90
2023-04-07T07:31:36.553Z,10.32
2023-04-07T07:36:41.624Z,10.88
2023-04-07T07:41:45.341Z,8.65
2023-04-07T07:46:49.407Z,7.35
2023-04-07T07:51:54.646Z,4.50
2023-04-07T07:56:58.422Z,3.75
2023-04-07T08:02:02.222Z,4.47
2023-04-07T08:07:07.237Z,5.15
2023-04-07T08:12:11.052Z,4.12
2023-04-07T08:17:14.751Z,2.72
2023-04-07T08:22:21.121Z,3.55
2023-04-07T08:27:24.882Z,3.50
2023-04-07T08:32:36.224Z,2.58
2023-04-07T08:37:43.476Z,2.78
2023-04-07T08:42:49.524Z,2.28
2023-04-07T08:47:57.815Z,2.58
2023-04-07T08:53:08.684Z,3.03
2023-04-07T08:58:14.320Z,2.30
2023-04-07T09:03:18.986Z,1.90
2023-04-07T09:08:24.196Z,2.80
2023-04-07T09:13:28.079Z,2.60
2023-04-07T09:18:31.843Z,2.87
2023-04-07T09:23:38.832Z,2.15
2023-04-07T09:28:43.359Z,2.45
2023-04-07T09:33:47.248Z,2.33
2023-04-07T09:38:53.599Z,1.98
2023-04-07T09:43:58.340Z,2.70
2023-04-07T09:49:05.189Z,2.33
2023-04-07T09:54:10.732Z,2.87
2023-04-07T09:59:17.449Z,2.40
2023-04-07T10:04:22.407Z,2.47
2023-04-07T10:09:29.050Z,2.67
2023-04-07T10:14:33.584Z,2.20
2023-04-07T10:19:37.493Z,2.72
2023-04-07T10:24:51.915Z,2.45
2023-04-07T10:29:58.318Z,2.08
2023-04-07T10:35:02.354Z,2.83
2023-04-07T10:40:31.594Z,2.80
2023-04-07T10:45:56.286Z,2.62
2023-04-07T10:51:19.243Z,2.10
2023-04-07T10:56:25.807Z,2.40
2023-04-07T11:01:29.603Z,3.40
2023-04-07T11:06:33.438Z,2.78
2023-04-07T11:11:42.896Z,2.83
2023-04-07T11:16:46.654Z,2.35
2023-04-07T11:21:50.678Z,2.90
2023-04-07T11:26:55.889Z,2.12
2023-04-07T11:32:00.773Z,3.20
2023-04-07T11:37:20.654Z,5.30
2023-04-07T11:42:36.216Z,2.92
2023-04-07T11:47:41.032Z,2.45
2023-04-07T11:52:45.142Z,3.65
2023-04-07T11:57:51.297Z,2.30
2023-04-07T12:02:55.268Z,2.60
2023-04-07T12:07:59.215Z,3.80
2023-04-07T12:13:04.567Z,2.10
2023-04-07T12:18:08.309Z,2.55
2023-04-07T12:23:11.993Z,2.42
2023-04-07T12:28:17.089Z,2.55
2023-04-07T12:33:21.278Z,3.10
2023-04-07T12:38:25.202Z,2.92
2023-04-07T12:43:30.488Z,2.17
2023-04-07T12:48:34.233Z,2.72
2023-04-07T12:53:38.029Z,2.78
2023-04-07T12:58:43.095Z,2.40
2023-04-07T13:03:47.275Z,3.58
2023-04-07T13:08:51.723Z,3.00
2023-04-07T13:13:58.563Z,3.10
2023-04-07T13:19:04.106Z,9.18
2023-04-07T13:24:07.933Z,3.22
2023-04-07T13:29:13.065Z,3.80
2023-04-07T13:34:17.059Z,2.67
2023-04-07T13:39:20.843Z,2.85
2023-04-07T13:44:27.558Z,2.10
2023-04-07T13:49:31.380Z,2.60
2023-04-07T13:54:35.385Z,3.25
2023-04-07T13:59:40.586Z,2.53
2023-04-07T14:04:44.547Z,3.40
2023-04-07T14:09:48.342Z,2.17
2023-04-07T14:14:54.805Z,2.70
2023-04-07T14:19:58.602Z,3.37
2023-04-07T14:25:02.400Z,4.55
2023-04-07T14:30:08.976Z,6.25
2023-04-07T14:35:12.703Z,3.22
2023-04-07T14:40:16.471Z,4.00
2023-04-07T14:45:21.692Z,2.55
2023-04-07T14:50:25.556Z,2.42
2023-04-07T14:55:30.932Z,2.40
2023-04-07T15:00:36.247Z,3.05
2023-04-07T15:05:39.944Z,2.60
2023-04-07T15:10:43.703Z,2.47
2023-04-07T15:15:48.885Z,2.65
2023-04-07T15:20:52.588Z,2.58
2023-04-07T15:25:57.771Z,2.55
2023-04-07T15:31:03.022Z,2.58
2023-04-07T15:36:07.928Z,2.65
2023-04-07T15:41:16.598Z,2.47
2023-04-07T15:46:21.698Z,2.62
2023-04-07T15:51:27.125Z,2.15
2023-04-07T15:56:30.847Z,3.47
2023-04-07T16:01:37.366Z,2.95
2023-04-07T16:06:41.210Z,5.12
2023-04-07T16:11:44.980Z,6.18
2023-04-07T16:16:53.722Z,3.40
2023-04-07T16:21:57.548Z,4.18
2023-04-07T16:27:03.945Z,3.40
2023-04-07T16:32:09.640Z,3.00
2023-04-07T16:37:14.121Z,4.55
2023-04-07T16:42:17.852Z,3.53
2023-04-07T16:47:23.076Z,5.80
2023-04-07T16:52:27.063Z,3.37
2023-04-07T16:57:30.777Z,3.70
2023-04-07T17:02:36.068Z,3.72
2023-04-07T17:07:39.871Z,3.95
2023-04-07T17:12:43.669Z,10.38
2023-04-07T17:17:48.965Z,4.90
2023-04-07T17:22:52.971Z,4.82
2023-04-07T17:27:56.812Z,3.78
2023-04-07T17:33:03.578Z,3.30
2023-04-07T17:38:07.408Z,3.65
2023-04-07T17:43:11.255Z,4.50
2023-04-07T17:48:16.911Z,3.55
2023-04-07T17:53:20.852Z,3.75
2023-04-07T17:58:24.890Z,4.68
2023-04-07T18:03:30.242Z,3.65
2023-04-07T18:08:34.117Z,4.72
2023-04-07T18:13:37.943Z,4.25
2023-04-07T18:18:43.041Z,3.35
2023-04-07T18:23:47.017Z,4.22
2023-04-07T18:28:50.924Z,4.82
2023-04-07T18:33:56.084Z,4.68
2023-04-07T18:38:59.769Z,8.45
2023-04-07T18:44:03.478Z,4.87
2023-04-07T18:49:08.686Z,4.80
2023-04-07T18:54:12.626Z,5.28
2023-04-07T18:59:16.663Z,5.80
2023-04-07T19:04:21.822Z,5.85
2023-04-07T19:09:26.480Z,5.85
2023-04-07T19:14:30.168Z,15.88
2023-04-07T19:19:35.238Z,12.15
2023-04-07T19:24:39.469Z,8.80
2023-04-07T19:29:43.239Z,6.18
2023-04-07T19:34:48.322Z,7.30
2023-04-07T19:40:02.269Z,7.12
2023-04-07T19:45:08.193Z,8.40
2023-04-07T19:50:14.300Z,8.45
2023-04-07T19:55:18.145Z,9.57
2023-04-07T20:00:22.113Z,8.35
2023-04-07T20:05:27.070Z,8.25
2023-04-07T20:10:30.848Z,8.88
2023-04-07T20:15:34.844Z,9.38
2023-04-07T20:20:39.926Z,7.40
2023-04-07T20:25:43.635Z,6.95
2023-04-07T20:30:47.406Z,8.23
2023-04-07T20:35:52.922Z,8.85
2023-04-07T20:40:56.752Z,8.98
2023-04-07T20:46:00.711Z,8.63
2023-04-07T20:51:05.865Z,7.65
2023-04-07T20:56:09.703Z,8.85
2023-04-07T21:01:13.436Z,9.35
2023-04-07T21:06:18.546Z,9.48
2023-04-07T21:11:22.239Z,8.65
2023-04-07T21:16:26.000Z,8.50
2023-04-07T21:21:31.541Z,9.95
2023-04-07T21:26:35.324Z,11.90
2023-04-07T21:31:39.218Z,8.90
2023-04-07T21:36:44.492Z,9.75
2023-04-07T21:41:48.218Z,10.57
2023-04-07T21:46:52.561Z,11.38
2023-04-07T21:51:58.065Z,11.63
2023-04-07T21:57:01.989Z,11.32
2023-04-07T22:02:05.954Z,12.48
2023-04-07T22:07:11.799Z,13.07
2023-04-07T22:12:15.479Z,12.18
2023-04-07T22:17:19.263Z,11.10
2023-04-07T22:22:24.317Z,11.43
2023-04-07T22:27:28.407Z,11.65
2023-04-07T22:32:32.214Z,13.82
2023-04-07T22:37:37.355Z,12.95
2023-04-07T22:42:41.124Z,12.88
2023-04-07T22:47:45.067Z,14.38
2023-04-07T22:52:50.467Z,14.93
2023-04-07T22:57:54.267Z,13.57
2023-04-07T23:02:58.070Z,15.80
2023-04-07T23:08:03.337Z,16.70
2023-04-07T23:13:07.065Z,17.40
2023-04-07T23:18:11.126Z,20.25
2023-04-07T23:23:16.270Z,21.00
2023-04-07T23:28:19.964Z,22.17
2023-04-07T23:33:24.486Z,22.67
2023-04-07T23:38:29.658Z,22.37
2023-04-07T23:43:33.488Z,23.30
2023-04-07T23:48:37.283Z,25.33
2023-04-07T23:53:42.489Z,25.15
2023-04-07T23:58:46.601Z,28.08
